createdAt,value
2023-04-17T00:02:48.491Z,10.66
2023-04-17T00:07:52.194Z,10.63
2023-04-17T00:12:56.820Z,10.61
2023-04-17T00:18:01.540Z,10.63
2023-04-17T00:23:04.987Z,10.63
2023-04-17T00:28:08.124Z,10.57
2023-04-17T00:33:15.635Z,10.59
2023-04-17T00:38:19.143Z,10.58
2023-04-17T00:43:22.452Z,10.58
2023-04-17T00:48:28.180Z,10.58
2023-04-17T00:53:32.437Z,10.59
2023-04-17T00:58:38.367Z,10.60
2023-04-17T01:03:43.756Z,10.59
2023-04-17T01:08:48.147Z,10.58
2023-04-17T01:13:52.241Z,10.53
2023-04-17T01:18:57.254Z,10.50
2023-04-17T01:24:04.040Z,10.48
2023-04-17T01:29:07.956Z,10.45
2023-04-17T01:34:12.242Z,10.44
2023-04-17T01:39:17.626Z,10.41
2023-04-17T01:44:20.936Z,10.37
2023-04-17T01:49:24.299Z,10.31
2023-04-17T01:54:28.970Z,10.31
2023-04-17T01:59:32.176Z,10.28
2023-04-17T02:04:35.610Z,10.28
2023-04-17T02:09:40.437Z,10.25
2023-04-17T02:14:43.848Z,10.22
2023-04-17T02:19:47.117Z,10.22
2023-04-17T02:24:51.710Z,10.21
2023-04-17T02:29:54.877Z,10.16
2023-04-17T02:34:58.297Z,10.11
2023-04-17T02:40:03.176Z,10.15
2023-04-17T02:45:07.925Z,10.10
2023-04-17T02:50:12.634Z,10.14
2023-04-17T02:55:20.215Z,10.09
2023-04-17T03:00:24.501Z,10.10
2023-04-17T03:05:30.563Z,10.07
2023-04-17T03:10:35.838Z,10.07
2023-04-17T03:15:39.137Z,10.06
2023-04-17T03:20:42.992Z,10.06
2023-04-17T03:25:47.706Z,10.06
2023-04-17T03:30:54.414Z,10.07
2023-04-17T03:35:57.864Z,9.97
2023-04-17T03:41:02.645Z,9.98
2023-04-17T03:46:07.736Z,9.95
2023-04-17T03:51:11.277Z,9.95
2023-04-17T03:56:31.729Z,9.90
2023-04-17T04:01:54.303Z,9.96
2023-04-17T04:07:09.125Z,9.94
2023-04-17T04:12:22.470Z,9.90
2023-04-17T04:17:26.890Z,9.92
2023-04-17T04:22:33.120Z,9.87
2023-04-17T04:27:38.005Z,9.85
2023-04-17T04:32:41.375Z,9.84
2023-04-17T04:37:46.625Z,9.84
2023-04-17T04:42:51.307Z,9.84
2023-04-17T04:47:54.714Z,9.84
2023-04-17T04:52:57.937Z,9.87
2023-04-17T04:58:02.907Z,9.85
2023-04-17T05:03:06.753Z,9.88
2023-04-17T05:08:10.380Z,9.86
2023-04-17T05:13:15.160Z,9.92
2023-04-17T05:18:20.300Z,9.89
2023-04-17T05:23:23.454Z,9.90
2023-04-17T05:28:29.854Z,9.94
2023-04-17T05:33:37.856Z,9.94
2023-04-17T05:38:41.488Z,9.96
2023-04-17T05:43:51.052Z,9.95
2023-04-17T05:48:54.451Z,9.94
2023-04-17T05:54:03.804Z,9.92
2023-04-17T05:59:08.456Z,9.94
2023-04-17T06:04:18.794Z,9.91
2023-04-17T06:09:24.480Z,9.87
2023-04-17T06:14:33.463Z,9.90
2023-04-17T06:19:36.675Z,9.88
2023-04-17T06:24:39.933Z,9.85
2023-04-17T06:29:44.779Z,9.92
2023-04-17T06:34:59.047Z,9.92
2023-04-17T06:40:02.457Z,9.95
2023-04-17T06:45:08.444Z,10.04
2023-04-17T06:50:12.064Z,10.11
2023-04-17T06:55:15.412Z,10.11
2023-04-17T07:00:21.475Z,10.07
2023-04-17T07:05:24.902Z,10.08
2023-04-17T07:10:28.420Z,10.15
2023-04-17T07:15:33.676Z,10.24
2023-04-17T07:20:39.976Z,10.23
2023-04-17T07:25:43.443Z,10.27
2023-04-17T07:30:48.322Z,10.31
2023-04-17T07:35:51.602Z,10.39
2023-04-17T07:40:54.830Z,10.42
2023-04-17T07:46:00.035Z,10.54
2023-04-17T07:51:04.473Z,10.55
2023-04-17T07:56:07.915Z,10.59
2023-04-17T08:01:12.489Z,10.69
2023-04-17T08:06:15.665Z,10.74
2023-04-17T08:11:18.855Z,10.87
2023-04-17T08:16:23.623Z,10.96
2023-04-17T08:21:26.933Z,11.02
2023-04-17T08:26:30.195Z,11.21
2023-04-17T08:31:36.757Z,11.47
2023-04-17T08:36:41.025Z,11.77
2023-04-17T08:41:50.573Z,11.95
2023-04-17T08:46:57.973Z,12.12
2023-04-17T08:52:03.497Z,12.35
2023-04-17T08:57:07.219Z,12.35
2023-04-17T09:02:11.928Z,12.40
2023-04-17T09:07:16.730Z,12.73
2023-04-17T09:12:20.341Z,12.95
2023-04-17T09:17:37.974Z,12.98
2023-04-17T09:22:42.421Z,13.19
2023-04-17T09:27:45.852Z,13.12
2023-04-17T09:33:03.894Z,13.04
2023-04-17T09:38:07.500Z,13.09
2023-04-17T09:43:11.660Z,13.13
2023-04-17T09:48:17.639Z,13.43
2023-04-17T09:53:21.318Z,13.45
2023-04-17T09:58:24.890Z,13.41
2023-04-17T10:03:30.117Z,13.42
2023-04-17T10:08:34.081Z,13.54
2023-04-17T10:13:42.997Z,13.69
2023-04-17T10:18:47.711Z,13.81
2023-04-17T10:23:51.169Z,13.92
2023-04-17T10:28:56.003Z,14.09
2023-04-17T10:34:01.045Z,14.26
2023-04-17T10:39:14.351Z,14.46
2023-04-17T10:44:19.451Z,14.63
2023-04-17T10:49:24.199Z,14.68
2023-04-17T10:54:27.612Z,14.80
2023-04-17T10:59:31.036Z,14.81
2023-04-17T11:04:36.647Z,14.90
2023-04-17T11:09:41.445Z,14.87
2023-04-17T11:14:44.548Z,15.04
2023-04-17T11:19:49.118Z,15.04
2023-04-17T11:24:53.030Z,14.93
2023-04-17T11:29:56.360Z,14.88
2023-04-17T11:35:01.167Z,14.95
2023-04-17T11:40:10.234Z,14.81
2023-04-17T11:45:13.699Z,15.05
2023-04-17T11:50:18.688Z,15.21
2023-04-17T11:55:21.969Z,15.32
2023-04-17T12:00:29.387Z,15.31
2023-04-17T12:05:34.108Z,15.30
2023-04-17T12:10:39.554Z,15.56
2023-04-17T12:15:42.944Z,15.50
2023-04-17T12:20:47.918Z,15.31
2023-04-17T12:25:51.120Z,15.09
2023-04-17T12:30:54.572Z,15.05
2023-04-17T12:36:00.159Z,15.05
2023-04-17T12:41:03.447Z,14.93
2023-04-17T12:46:07.058Z,14.87
2023-04-17T12:51:11.980Z,14.80
2023-04-17T12:56:15.679Z,14.55
2023-04-17T13:01:19.663Z,14.39
2023-04-17T13:06:24.306Z,14.37
2023-04-17T13:11:28.071Z,14.41
2023-04-17T13:16:32.193Z,14.46
2023-04-17T13:21:37.012Z,14.31
2023-04-17T13:26:40.489Z,14.26
2023-04-17T13:31:44.426Z,14.34
2023-04-17T13:36:49.827Z,14.35
2023-04-17T13:41:53.515Z,14.27
2023-04-17T13:46:56.853Z,14.31
2023-04-17T13:52:03.347Z,14.39
2023-04-17T13:57:06.783Z,14.68
2023-04-17T14:02:10.419Z,14.61
2023-04-17T14:07:18.403Z,14.57
2023-04-17T14:12:24.775Z,14.61
2023-04-17T14:17:28.000Z,14.31
2023-04-17T14:22:32.477Z,14.28
2023-04-17T14:27:39.694Z,14.22
2023-04-17T14:32:43.182Z,14.16
2023-04-17T14:37:48.578Z,14.11
2023-04-17T14:42:55.202Z,14.37
2023-04-17T14:47:59.248Z,14.34
2023-04-17T14:53:04.579Z,14.28
2023-04-17T14:58:07.740Z,14.29
2023-04-17T15:03:11.523Z,14.30
2023-04-17T15:08:16.932Z,14.23
2023-04-17T15:13:20.620Z,14.26
2023-04-17T15:18:24.064Z,14.27
2023-04-17T15:23:29.988Z,14.26
2023-04-17T15:28:34.137Z,14.03
2023-04-17T15:33:37.845Z,13.87
2023-04-17T15:38:42.505Z,13.79
2023-04-17T15:43:45.771Z,13.73
2023-04-17T15:49:04.653Z,13.60
2023-04-17T15:54:12.284Z,13.52
2023-04-17T15:59:16.485Z,13.42
2023-04-17T16:04:23.134Z,13.12
2023-04-17T16:09:27.886Z,13.14
2023-04-17T16:14:31.200Z,13.23
2023-04-17T16:19:35.492Z,13.23
2023-04-17T16:24:40.525Z,13.18
2023-04-17T16:29:44.418Z,13.06
2023-04-17T16:34:48.658Z,12.97
2023-04-17T16:39:53.582Z,12.97
2023-04-17T16:44:56.835Z,12.88
2023-04-17T16:50:00.096Z,12.84
2023-04-17T16:55:08.568Z,12.71
2023-04-17T17:00:14.003Z,12.54
2023-04-17T17:05:17.531Z,12.43
2023-04-17T17:10:22.261Z,12.35
2023-04-17T17:15:25.781Z,12.17
2023-04-17T17:20:30.334Z,12.03
2023-04-17T17:25:34.861Z,11.98
2023-04-17T17:30:41.033Z,11.73
2023-04-17T17:35:44.414Z,11.68
2023-04-17T17:41:12.890Z,11.61
2023-04-17T17:46:19.472Z,11.49
2023-04-17T17:51:23.871Z,11.48
2023-04-17T17:56:31.326Z,11.49
2023-04-17T18:01:34.890Z,11.38
2023-04-17T18:06:58.173Z,11.27
2023-04-17T18:12:08.667Z,11.21
2023-04-17T18:17:11.965Z,11.18
2023-04-17T18:22:15.586Z,11.11
2023-04-17T18:27:21.061Z,11.04
2023-04-17T18:32:24.829Z,10.95
2023-04-17T18:37:28.207Z,10.90
2023-04-17T18:42:33.128Z,10.85
2023-04-17T18:47:37.258Z,10.75
2023-04-17T18:52:45.029Z,10.71
2023-04-17T18:57:56.903Z,10.69
2023-04-17T19:03:02.541Z,10.64
2023-04-17T19:08:41.620Z,10.55
2023-04-17T19:13:48.091Z,10.49
2023-04-17T19:18:57.957Z,10.47
2023-04-17T19:24:01.213Z,10.42
2023-04-17T19:29:06.133Z,10.38
2023-04-17T19:34:10.664Z,10.31
2023-04-17T19:39:14.505Z,10.21
2023-04-17T19:44:19.457Z,10.06
2023-04-17T19:49:24.045Z,9.92
2023-04-17T19:54:28.296Z,9.76
2023-04-17T19:59:33.071Z,9.61
2023-04-17T20:04:36.392Z,9.52
2023-04-17T20:09:39.789Z,9.61
2023-04-17T20:14:44.687Z,9.64
2023-04-17T20:19:47.961Z,9.68
2023-04-17T20:24:51.173Z,9.65
2023-04-17T20:29:55.788Z,9.64
2023-04-17T20:34:59.203Z,9.68
2023-04-17T20:40:11.958Z,9.72
2023-04-17T20:45:20.884Z,9.66
2023-04-17T20:50:24.348Z,9.63
2023-04-17T20:55:28.152Z,9.65
2023-04-17T21:00:44.546Z,9.68
2023-04-17T21:05:57.889Z,9.66
2023-04-17T21:11:06.273Z,9.71
2023-04-17T21:16:12.970Z,9.71
2023-04-17T21:21:16.366Z,9.73
2023-04-17T21:26:19.739Z,9.69
2023-04-17T21:31:24.680Z,9.67
2023-04-17T21:36:28.726Z,9.71
2023-04-17T21:41:32.176Z,9.74
2023-04-17T21:46:36.834Z,9.69
2023-04-17T21:51:39.929Z,9.70
2023-04-17T21:56:43.004Z,9.76
2023-04-17T22:01:47.617Z,9.74
2023-04-17T22:06:51.828Z,9.75
2023-04-17T22:11:55.038Z,9.68
2023-04-17T22:16:59.624Z,9.70
2023-04-17T22:22:02.968Z,9.71
2023-04-17T22:27:06.131Z,9.68
2023-04-17T22:32:11.199Z,9.65
2023-04-17T22:37:14.452Z,9.60
2023-04-17T22:42:17.562Z,9.53
2023-04-17T22:47:22.902Z,9.57
2023-04-17T22:52:26.100Z,9.55
2023-04-17T22:57:29.431Z,9.58
2023-04-17T23:02:34.255Z,9.52
2023-04-17T23:07:37.760Z,9.50
2023-04-17T23:12:41.117Z,9.54
2023-04-17T23:17:46.233Z,9.53
2023-04-17T23:22:49.494Z,9.55
2023-04-17T23:27:52.625Z,9.55
2023-04-17T23:32:57.449Z,9.52
2023-04-17T23:38:00.836Z,9.54
2023-04-17T23:43:03.947Z,9.48
2023-04-17T23:48:08.597Z,9.49
2023-04-17T23:53:11.773Z,9.47
2023-04-17T23:58:14.993Z,9.49
